sensor_id;sensor_type;location;lat;lon;timestamp;P1;durP1;ratioP1;P2;durP2;ratioP2
9934;SDS011;5006;41.828;23.478;2023-04-25T00:00:36;5.63;;;4.97;;
9934;SDS011;5006;41.828;23.478;2023-04-25T00:01:43;5.93;;;5.43;;
9934;SDS011;5006;41.828;23.478;2023-04-25T00:02:47;7.03;;;6.43;;
9934;SDS011;5006;41.828;23.478;2023-04-25T00:03:53;7.45;;;6.85;;
9934;SDS011;5006;41.828;23.478;2023-04-25T00:04:58;6.75;;;6.05;;
9934;SDS011;5006;41.828;23.478;2023-04-25T00:06:05;8.05;;;7.15;;
9934;SDS011;5006;41.828;23.478;2023-04-25T00:07:11;7.82;;;7.13;;
9934;SDS011;5006;41.828;23.478;2023-04-25T00:08:19;7.68;;;6.97;;
9934;SDS011;5006;41.828;23.478;2023-04-25T00:09:24;7.63;;;7.03;;
9934;SDS011;5006;41.828;23.478;2023-04-25T00:10:30;7.95;;;7.25;;
9934;SDS011;5006;41.828;23.478;2023-04-25T00:11:36;10.20;;;7.03;;
9934;SDS011;5006;41.828;23.478;2023-04-25T00:12:42;8.10;;;7.30;;
9934;SDS011;5006;41.828;23.478;2023-04-25T00:13:48;6.80;;;6.20;;
9934;SDS011;5006;41.828;23.478;2023-04-25T00:14:55;6.22;;;5.63;;
9934;SDS011;5006;41.828;23.478;2023-04-25T00:16:03;5.35;;;4.95;;
9934;SDS011;5006;41.828;23.478;2023-04-25T00:17:09;5.43;;;4.80;;
9934;SDS011;5006;41.828;23.478;2023-04-25T00:18:16;5.85;;;5.35;;
9934;SDS011;5006;41.828;23.478;2023-04-25T00:19:21;5.50;;;5.00;;
9934;SDS011;5006;41.828;23.478;2023-04-25T00:20:26;5.70;;;5.10;;
9934;SDS011;5006;41.828;23.478;2023-04-25T00:21:32;5.30;;;4.78;;
9934;SDS011;5006;41.828;23.478;2023-04-25T00:22:37;5.35;;;4.85;;
9934;SDS011;5006;41.828;23.478;2023-04-25T00:23:45;5.63;;;4.57;;
9934;SDS011;5006;41.828;23.478;2023-04-25T00:24:50;4.40;;;4.00;;
9934;SDS011;5006;41.828;23.478;2023-04-25T00:25:57;4.20;;;3.80;;
9934;SDS011;5006;41.828;23.478;2023-04-25T00:27:03;4.43;;;4.03;;
9934;SDS011;5006;41.828;23.478;2023-04-25T00:28:09;4.53;;;3.92;;
9934;SDS011;5006;41.828;23.478;2023-04-25T00:29:13;5.03;;;3.50;;
9934;SDS011;5006;41.828;23.478;2023-04-25T00:30:19;4.45;;;3.65;;
9934;SDS011;5006;41.828;23.478;2023-04-25T00:31:24;5.18;;;2.90;;
9934;SDS011;5006;41.828;23.478;2023-04-25T00:32:30;4.22;;;3.13;;
9934;SDS011;5006;41.828;23.478;2023-04-25T00:33:35;4.50;;;2.88;;
9934;SDS011;5006;41.828;23.478;2023-04-25T00:34:41;3.38;;;2.72;;
9934;SDS011;5006;41.828;23.478;2023-04-25T00:35:46;4.22;;;2.55;;
9934;SDS011;5006;41.828;23.478;2023-04-25T00:36:53;2.90;;;2.47;;
9934;SDS011;5006;41.828;23.478;2023-04-25T00:37:59;2.40;;;2.20;;
9934;SDS011;5006;41.828;23.478;2023-04-25T00:39:06;2.53;;;2.33;;
9934;SDS011;5006;41.828;23.478;2023-04-25T00:40:12;3.95;;;2.80;;
9934;SDS011;5006;41.828;23.478;2023-04-25T00:41:18;3.25;;;2.50;;
9934;SDS011;5006;41.828;23.478;2023-04-25T00:42:24;2.85;;;2.30;;
9934;SDS011;5006;41.828;23.478;2023-04-25T00:43:30;3.05;;;2.53;;
9934;SDS011;5006;41.828;23.478;2023-04-25T00:44:38;3.25;;;2.45;;
9934;SDS011;5006;41.828;23.478;2023-04-25T00:45:45;3.47;;;2.50;;
9934;SDS011;5006;41.828;23.478;2023-04-25T00:46:51;2.70;;;2.50;;
9934;SDS011;5006;41.828;23.478;2023-04-25T00:47:59;2.75;;;2.55;;
9934;SDS011;5006;41.828;23.478;2023-04-25T00:49:04;3.17;;;2.90;;
9934;SDS011;5006;41.828;23.478;2023-04-25T00:50:12;3.55;;;3.20;;
9934;SDS011;5006;41.828;23.478;2023-04-25T00:51:19;7.95;;;3.65;;
9934;SDS011;5006;41.828;23.478;2023-04-25T00:52:27;4.70;;;3.08;;
9934;SDS011;5006;41.828;23.478;2023-04-25T00:53:33;3.63;;;3.05;;
9934;SDS011;5006;41.828;23.478;2023-04-25T00:54:40;3.25;;;2.95;;
9934;SDS011;5006;41.828;23.478;2023-04-25T00:55:45;3.58;;;3.28;;
9934;SDS011;5006;41.828;23.478;2023-04-25T00:56:51;3.22;;;2.92;;
9934;SDS011;5006;41.828;23.478;2023-04-25T00:57:56;3.50;;;3.10;;
9934;SDS011;5006;41.828;23.478;2023-04-25T00:59:03;4.40;;;2.78;;
9934;SDS011;5006;41.828;23.478;2023-04-25T01:00:09;3.00;;;2.75;;
9934;SDS011;5006;41.828;23.478;2023-04-25T01:01:17;3.10;;;2.90;;
9934;SDS011;5006;41.828;23.478;2023-04-25T01:02:22;4.30;;;3.20;;
9934;SDS011;5006;41.828;23.478;2023-04-25T01:03:30;4.15;;;3.17;;
9934;SDS011;5006;41.828;23.478;2023-04-25T01:04:36;4.32;;;3.72;;
9934;SDS011;5006;41.828;23.478;2023-04-25T01:05:43;4.10;;;3.70;;
9934;SDS011;5006;41.828;23.478;2023-04-25T01:06:48;4.03;;;3.67;;
9934;SDS011;5006;41.828;23.478;2023-04-25T01:07:55;4.05;;;3.75;;
9934;SDS011;5006;41.828;23.478;2023-04-25T01:09:02;3.88;;;3.55;;
9934;SDS011;5006;41.828;23.478;2023-04-25T01:10:11;4.25;;;3.65;;
9934;SDS011;5006;41.828;23.478;2023-04-25T01:11:16;4.07;;;3.63;;
9934;SDS011;5006;41.828;23.478;2023-04-25T01:12:22;4.68;;;4.28;;
9934;SDS011;5006;41.828;23.478;2023-04-25T01:13:28;4.60;;;3.83;;
9934;SDS011;5006;41.828;23.478;2023-04-25T01:14:37;5.07;;;4.05;;
9934;SDS011;5006;41.828;23.478;2023-04-25T01:15:43;5.25;;;3.90;;
9934;SDS011;5006;41.828;23.478;2023-04-25T01:16:50;4.35;;;3.95;;
9934;SDS011;5006;41.828;23.478;2023-04-25T01:17:57;4.25;;;3.85;;
9934;SDS011;5006;41.828;23.478;2023-04-25T01:19:06;5.25;;;4.22;;
9934;SDS011;5006;41.828;23.478;2023-04-25T01:20:15;5.40;;;4.03;;
9934;SDS011;5006;41.828;23.478;2023-04-25T01:21:23;4.50;;;3.60;;
9934;SDS011;5006;41.828;23.478;2023-04-25T01:22:30;4.32;;;3.92;;
9934;SDS011;5006;41.828;23.478;2023-04-25T01:23:37;4.10;;;3.70;;
9934;SDS011;5006;41.828;23.478;2023-04-25T01:24:43;4.10;;;3.70;;
9934;SDS011;5006;41.828;23.478;2023-04-25T01:25:49;4.22;;;3.83;;
9934;SDS011;5006;41.828;23.478;2023-04-25T01:26:55;5.90;;;4.35;;
9934;SDS011;5006;41.828;23.478;2023-04-25T01:28:03;3.70;;;3.40;;
9934;SDS011;5006;41.828;23.478;2023-04-25T01:29:10;3.83;;;3.53;;
9934;SDS011;5006;41.828;23.478;2023-04-25T01:30:17;4.07;;;3.67;;
9934;SDS011;5006;41.828;23.478;2023-04-25T01:31:22;4.28;;;3.78;;
9934;SDS011;5006;41.828;23.478;2023-04-25T01:32:28;5.20;;;4.10;;
9934;SDS011;5006;41.828;23.478;2023-04-25T01:33:42;4.35;;;3.95;;
9934;SDS011;5006;41.828;23.478;2023-04-25T01:34:49;4.30;;;3.90;;
9934;SDS011;5006;41.828;23.478;2023-04-25T01:35:54;3.20;;;2.90;;
9934;SDS011;5006;41.828;23.478;2023-04-25T01:37:02;4.47;;;2.90;;
9934;SDS011;5006;41.828;23.478;2023-04-25T01:38:08;3.40;;;2.47;;
9934;SDS011;5006;41.828;23.478;2023-04-25T01:39:13;2.88;;;2.67;;
9934;SDS011;5006;41.828;23.478;2023-04-25T01:40:20;2.42;;;2.22;;
9934;SDS011;5006;41.828;23.478;2023-04-25T01:41:26;2.47;;;2.28;;
9934;SDS011;5006;41.828;23.478;2023-04-25T01:42:32;2.25;;;2.05;;
9934;SDS011;5006;41.828;23.478;2023-04-25T01:43:39;2.35;;;2.05;;
9934;SDS011;5006;41.828;23.478;2023-04-25T01:44:44;2.78;;;2.00;;
9934;SDS011;5006;41.828;23.478;2023-04-25T01:45:51;2.40;;;2.20;;
9934;SDS011;5006;41.828;23.478;2023-04-25T01:46:56;2.38;;;2.17;;
9934;SDS011;5006;41.828;23.478;2023-04-25T01:48:04;2.42;;;2.22;;
9934;SDS011;5006;41.828;23.478;2023-04-25T01:49:09;2.03;;;1.83;;
9934;SDS011;5006;41.828;23.478;2023-04-25T01:50:17;2.00;;;1.80;;
9934;SDS011;5006;41.828;23.478;2023-04-25T01:51:24;3.22;;;2.28;;
9934;SDS011;5006;41.828;23.478;2023-04-25T01:52:31;2.67;;;2.10;;
9934;SDS011;5006;41.828;23.478;2023-04-25T01:53:38;3.05;;;2.10;;
9934;SDS011;5006;41.828;23.478;2023-04-25T01:54:43;4.38;;;2.35;;
9934;SDS011;5006;41.828;23.478;2023-04-25T01:55:50;2.40;;;2.20;;
9934;SDS011;5006;41.828;23.478;2023-04-25T01:56:58;2.53;;;2.33;;
9934;SDS011;5006;41.828;23.478;2023-04-25T01:58:06;3.10;;;2.75;;
9934;SDS011;5006;41.828;23.478;2023-04-25T01:59:51;3.13;;;2.42;;
9934;SDS011;5006;41.828;23.478;2023-04-25T02:01:17;2.13;;;2.00;;
9934;SDS011;5006;41.828;23.478;2023-04-25T02:02:31;2.13;;;1.92;;
9934;SDS011;5006;41.828;23.478;2023-04-25T02:03:38;2.20;;;2.00;;
9934;SDS011;5006;41.828;23.478;2023-04-25T02:04:47;2.03;;;1.90;;
9934;SDS011;5006;41.828;23.478;2023-04-25T02:05:54;2.05;;;1.92;;
9934;SDS011;5006;41.828;23.478;2023-04-25T02:06:59;2.65;;;2.45;;
9934;SDS011;5006;41.828;23.478;2023-04-25T02:08:16;3.35;;;2.50;;
9934;SDS011;5006;41.828;23.478;2023-04-25T02:09:22;2.53;;;2.33;;
9934;SDS011;5006;41.828;23.478;2023-04-25T02:10:32;3.15;;;2.40;;
9934;SDS011;5006;41.828;23.478;2023-04-25T02:11:52;2.50;;;2.30;;
9934;SDS011;5006;41.828;23.478;2023-04-25T02:13:08;2.50;;;2.30;;
9934;SDS011;5006;41.828;23.478;2023-04-25T02:14:27;3.70;;;2.50;;
9934;SDS011;5006;41.828;23.478;2023-04-25T02:15:55;3.10;;;2.80;;
9934;SDS011;5006;41.828;23.478;2023-04-25T02:17:01;3.13;;;2.83;;
9934;SDS011;5006;41.828;23.478;2023-04-25T02:18:08;2.92;;;2.40;;
9934;SDS011;5006;41.828;23.478;2023-04-25T02:19:15;3.25;;;2.95;;
9934;SDS011;5006;41.828;23.478;2023-04-25T02:20:20;2.80;;;2.45;;
9934;SDS011;5006;41.828;23.478;2023-04-25T02:21:28;4.85;;;2.70;;
9934;SDS011;5006;41.828;23.478;2023-04-25T02:22:33;2.40;;;2.20;;
9934;SDS011;5006;41.828;23.478;2023-04-25T02:23:41;3.47;;;2.45;;
9934;SDS011;5006;41.828;23.478;2023-04-25T02:24:46;3.78;;;2.47;;
9934;SDS011;5006;41.828;23.478;2023-04-25T02:25:52;2.28;;;2.08;;
9934;SDS011;5006;41.828;23.478;2023-04-25T02:26:59;2.65;;;1.90;;
9934;SDS011;5006;41.828;23.478;2023-04-25T02:28:06;2.10;;;1.83;;
9934;SDS011;5006;41.828;23.478;2023-04-25T02:29:12;2.60;;;2.40;;
9934;SDS011;5006;41.828;23.478;2023-04-25T02:30:20;3.00;;;2.33;;
9934;SDS011;5006;41.828;23.478;2023-04-25T02:31:25;2.47;;;2.28;;
9934;SDS011;5006;41.828;23.478;2023-04-25T02:32:31;2.72;;;2.28;;
9934;SDS011;5006;41.828;23.478;2023-04-25T02:33:38;3.90;;;3.50;;
9934;SDS011;5006;41.828;23.478;2023-04-25T02:34:44;3.25;;;2.95;;
9934;SDS011;5006;41.828;23.478;2023-04-25T02:35:50;3.75;;;3.22;;
9934;SDS011;5006;41.828;23.478;2023-04-25T02:36:55;3.78;;;3.38;;
9934;SDS011;5006;41.828;23.478;2023-04-25T02:38:00;3.28;;;2.97;;
9934;SDS011;5006;41.828;23.478;2023-04-25T02:39:08;3.58;;;2.70;;
9934;SDS011;5006;41.828;23.478;2023-04-25T02:40:14;3.45;;;2.80;;
9934;SDS011;5006;41.828;23.478;2023-04-25T02:41:20;3.28;;;2.92;;
9934;SDS011;5006;41.828;23.478;2023-04-25T02:42:25;3.35;;;3.05;;
9934;SDS011;5006;41.828;23.478;2023-04-25T02:43:32;2.88;;;2.63;;
9934;SDS011;5006;41.828;23.478;2023-04-25T02:44:37;3.58;;;3.05;;
9934;SDS011;5006;41.828;23.478;2023-04-25T02:45:43;3.65;;;3.30;;
9934;SDS011;5006;41.828;23.478;2023-04-25T02:46:49;3.50;;;2.97;;
9934;SDS011;5006;41.828;23.478;2023-04-25T02:47:55;3.65;;;3.35;;
9934;SDS011;5006;41.828;23.478;2023-04-25T02:49:02;3.58;;;3.20;;
9934;SDS011;5006;41.828;23.478;2023-04-25T02:50:08;3.30;;;3.00;;
9934;SDS011;5006;41.828;23.478;2023-04-25T02:51:16;3.95;;;3.60;;
9934;SDS011;5006;41.828;23.478;2023-04-25T02:52:21;3.75;;;3.40;;
9934;SDS011;5006;41.828;23.478;2023-04-25T02:53:36;4.10;;;3.70;;
9934;SDS011;5006;41.828;23.478;2023-04-25T02:54:43;5.00;;;4.53;;
9934;SDS011;5006;41.828;23.478;2023-04-25T02:55:47;4.68;;;4.22;;
9934;SDS011;5006;41.828;23.478;2023-04-25T02:56:53;5.05;;;4.60;;
9934;SDS011;5006;41.828;23.478;2023-04-25T02:58:04;4.88;;;4.43;;
9934;SDS011;5006;41.828;23.478;2023-04-25T02:59:26;6.22;;;5.63;;
9934;SDS011;5006;41.828;23.478;2023-04-25T03:00:31;6.32;;;5.72;;
9934;SDS011;5006;41.828;23.478;2023-04-25T03:01:38;5.82;;;5.22;;
9934;SDS011;5006;41.828;23.478;2023-04-25T03:02:42;7.97;;;6.47;;
9934;SDS011;5006;41.828;23.478;2023-04-25T03:03:48;8.32;;;7.53;;
9934;SDS011;5006;41.828;23.478;2023-04-25T03:04:54;7.32;;;6.63;;
9934;SDS011;5006;41.828;23.478;2023-04-25T03:05:59;7.32;;;6.65;;
9934;SDS011;5006;41.828;23.478;2023-04-25T03:07:10;6.20;;;5.70;;
9934;SDS011;5006;41.828;23.478;2023-04-25T03:08:15;7.35;;;6.75;;
9934;SDS011;5006;41.828;23.478;2023-04-25T03:09:21;9.80;;;7.80;;
9934;SDS011;5006;41.828;23.478;2023-04-25T03:10:31;8.43;;;7.63;;
9934;SDS011;5006;41.828;23.478;2023-04-25T03:11:42;8.02;;;6.90;;
9934;SDS011;5006;41.828;23.478;2023-04-25T03:12:49;9.02;;;7.43;;
9934;SDS011;5006;41.828;23.478;2023-04-25T03:13:54;10.25;;;9.35;;
9934;SDS011;5006;41.828;23.478;2023-04-25T03:15:00;5.30;;;4.80;;
9934;SDS011;5006;41.828;23.478;2023-04-25T03:16:05;5.40;;;4.90;;
9934;SDS011;5006;41.828;23.478;2023-04-25T03:17:12;6.07;;;5.47;;
9934;SDS011;5006;41.828;23.478;2023-04-25T03:18:18;5.15;;;4.65;;
9934;SDS011;5006;41.828;23.478;2023-04-25T03:19:23;5.88;;;5.18;;
9934;SDS011;5006;41.828;23.478;2023-04-25T03:20:29;4.90;;;4.38;;
9934;SDS011;5006;41.828;23.478;2023-04-25T03:21:35;4.30;;;3.92;;
9934;SDS011;5006;41.828;23.478;2023-04-25T03:22:40;4.57;;;3.53;;
9934;SDS011;5006;41.828;23.478;2023-04-25T03:23:46;4.22;;;3.83;;
9934;SDS011;5006;41.828;23.478;2023-04-25T03:24:51;5.85;;;5.35;;
9934;SDS011;5006;41.828;23.478;2023-04-25T03:26:00;7.38;;;6.78;;
9934;SDS011;5006;41.828;23.478;2023-04-25T03:27:05;6.88;;;6.25;;
9934;SDS011;5006;41.828;23.478;2023-04-25T03:28:11;8.02;;;7.32;;
9934;SDS011;5006;41.828;23.478;2023-04-25T03:29:16;7.68;;;6.97;;
9934;SDS011;5006;41.828;23.478;2023-04-25T03:30:22;8.15;;;7.00;;
9934;SDS011;5006;41.828;23.478;2023-04-25T03:31:28;9.05;;;6.95;;
9934;SDS011;5006;41.828;23.478;2023-04-25T03:32:34;6.50;;;6.00;;
9934;SDS011;5006;41.828;23.478;2023-04-25T03:33:41;7.57;;;6.80;;
9934;SDS011;5006;41.828;23.478;2023-04-25T03:34:46;8.57;;;7.78;;
9934;SDS011;5006;41.828;23.478;2023-04-25T03:35:52;9.10;;;8.20;;
9934;SDS011;5006;41.828;23.478;2023-04-25T03:36:57;7.35;;;6.75;;
9934;SDS011;5006;41.828;23.478;2023-04-25T03:38:04;6.68;;;6.15;;
9934;SDS011;5006;41.828;23.478;2023-04-25T03:39:15;6.38;;;5.85;;
9934;SDS011;5006;41.828;23.478;2023-04-25T03:40:25;6.70;;;6.10;;
9934;SDS011;5006;41.828;23.478;2023-04-25T03:41:48;12.00;;;8.98;;
9934;SDS011;5006;41.828;23.478;2023-04-25T03:42:57;13.07;;;8.50;;
9934;SDS011;5006;41.828;23.478;2023-04-25T03:44:03;41.30;;;9.90;;
9934;SDS011;5006;41.828;23.478;2023-04-25T03:45:09;10.13;;;9.18;;
9934;SDS011;5006;41.828;23.478;2023-04-25T03:46:14;6.60;;;6.00;;
9934;SDS011;5006;41.828;23.478;2023-04-25T03:47:20;4.85;;;4.45;;
9934;SDS011;5006;41.828;23.478;2023-04-25T03:48:27;8.57;;;5.20;;
9934;SDS011;5006;41.828;23.478;2023-04-25T03:49:34;11.00;;;4.93;;
9934;SDS011;5006;41.828;23.478;2023-04-25T03:50:41;4.63;;;4.22;;
9934;SDS011;5006;41.828;23.478;2023-04-25T03:51:46;4.10;;;3.80;;
9934;SDS011;5006;41.828;23.478;2023-04-25T03:52:53;4.03;;;3.63;;
9934;SDS011;5006;41.828;23.478;2023-04-25T03:53:58;4.68;;;4.28;;
9934;SDS011;5006;41.828;23.478;2023-04-25T03:55:10;4.80;;;4.10;;
9934;SDS011;5006;41.828;23.478;2023-04-25T03:56:15;4.05;;;3.70;;
9934;SDS011;5006;41.828;23.478;2023-04-25T03:57:25;4.60;;;4.20;;
9934;SDS011;5006;41.828;23.478;2023-04-25T03:58:32;5.25;;;4.85;;
9934;SDS011;5006;41.828;23.478;2023-04-25T03:59:37;5.07;;;4.50;;
9934;SDS011;5006;41.828;23.478;2023-04-25T04:00:43;4.88;;;4.45;;
9934;SDS011;5006;41.828;23.478;2023-04-25T04:01:49;5.18;;;4.68;;
9934;SDS011;5006;41.828;23.478;2023-04-25T04:02:54;4.35;;;3.90;;
9934;SDS011;5006;41.828;23.478;2023-04-25T04:04:01;4.43;;;4.03;;
9934;SDS011;5006;41.828;23.478;2023-04-25T04:05:07;4.60;;;4.20;;
9934;SDS011;5006;41.828;23.478;2023-04-25T04:06:16;4.80;;;4.32;;
9934;SDS011;5006;41.828;23.478;2023-04-25T04:07:28;5.53;;;5.00;;
9934;SDS011;5006;41.828;23.478;2023-04-25T04:08:35;4.78;;;4.38;;
9934;SDS011;5006;41.828;23.478;2023-04-25T04:09:41;4.65;;;4.20;;
9934;SDS011;5006;41.828;23.478;2023-04-25T04:10:51;5.20;;;4.55;;
9934;SDS011;5006;41.828;23.478;2023-04-25T04:11:57;4.97;;;4.32;;
9934;SDS011;5006;41.828;23.478;2023-04-25T04:13:04;5.60;;;5.10;;
9934;SDS011;5006;41.828;23.478;2023-04-25T04:14:10;5.55;;;5.15;;
9934;SDS011;5006;41.828;23.478;2023-04-25T04:15:19;5.78;;;5.28;;
9934;SDS011;5006;41.828;23.478;2023-04-25T04:16:26;6.15;;;5.65;;
9934;SDS011;5006;41.828;23.478;2023-04-25T04:17:32;5.97;;;5.47;;
9934;SDS011;5006;41.828;23.478;2023-04-25T04:18:38;8.77;;;7.57;;
9934;SDS011;5006;41.828;23.478;2023-04-25T04:19:43;8.00;;;7.30;;
9934;SDS011;5006;41.828;23.478;2023-04-25T04:20:55;10.05;;;9.05;;
9934;SDS011;5006;41.828;23.478;2023-04-25T04:22:02;9.32;;;8.52;;
9934;SDS011;5006;41.828;23.478;2023-04-25T04:23:09;9.00;;;8.30;;
9934;SDS011;5006;41.828;23.478;2023-04-25T04:24:14;9.90;;;8.90;;
9934;SDS011;5006;41.828;23.478;2023-04-25T04:25:35;9.30;;;8.50;;
9934;SDS011;5006;41.828;23.478;2023-04-25T04:26:46;9.10;;;8.30;;
9934;SDS011;5006;41.828;23.478;2023-04-25T04:28:23;7.53;;;6.93;;
9934;SDS011;5006;41.828;23.478;2023-04-25T04:29:34;6.97;;;6.38;;
9934;SDS011;5006;41.828;23.478;2023-04-25T04:30:53;6.47;;;5.97;;
9934;SDS011;5006;41.828;23.478;2023-04-25T04:32:00;5.63;;;5.13;;
9934;SDS011;5006;41.828;23.478;2023-04-25T04:33:07;6.38;;;5.85;;
9934;SDS011;5006;41.828;23.478;2023-04-25T04:34:13;14.65;;;13.25;;
9934;SDS011;5006;41.828;23.478;2023-04-25T04:35:20;18.35;;;16.55;;
9934;SDS011;5006;41.828;23.478;2023-04-25T04:36:26;15.18;;;13.77;;
9934;SDS011;5006;41.828;23.478;2023-04-25T04:37:32;15.63;;;14.02;;
9934;SDS011;5006;41.828;23.478;2023-04-25T04:38:41;17.27;;;15.25;;
9934;SDS011;5006;41.828;23.478;2023-04-25T04:39:55;15.52;;;13.57;;
9934;SDS011;5006;41.828;23.478;2023-04-25T04:41:04;18.48;;;16.67;;
9934;SDS011;5006;41.828;23.478;2023-04-25T04:42:33;18.60;;;16.75;;
9934;SDS011;5006;41.828;23.478;2023-04-25T04:43:50;17.35;;;15.63;;
9934;SDS011;5006;41.828;23.478;2023-04-25T04:45:21;17.67;;;15.98;;
9934;SDS011;5006;41.828;23.478;2023-04-25T04:46:45;16.77;;;15.10;;
9934;SDS011;5006;41.828;23.478;2023-04-25T04:48:04;17.92;;;16.23;;
9934;SDS011;5006;41.828;23.478;2023-04-25T04:49:20;17.88;;;16.13;;
9934;SDS011;5006;41.828;23.478;2023-04-25T04:50:58;18.85;;;16.92;;
9934;SDS011;5006;41.828;23.478;2023-04-25T04:52:24;20.25;;;17.52;;
9934;SDS011;5006;41.828;23.478;2023-04-25T04:53:53;20.27;;;18.17;;
9934;SDS011;5006;41.828;23.478;2023-04-25T04:55:28;23.25;;;20.80;;
9934;SDS011;5006;41.828;23.478;2023-04-25T04:57:03;21.58;;;19.38;;
9934;SDS011;5006;41.828;23.478;2023-04-25T04:58:27;17.88;;;16.17;;
9934;SDS011;5006;41.828;23.478;2023-04-25T05:00:07;18.02;;;16.27;;
9934;SDS011;5006;41.828;23.478;2023-04-25T05:01:33;16.75;;;15.15;;
9934;SDS011;5006;41.828;23.478;2023-04-25T05:03:02;15.57;;;13.95;;
9934;SDS011;5006;41.828;23.478;2023-04-25T05:04:28;14.48;;;12.98;;
9934;SDS011;5006;41.828;23.478;2023-04-25T05:05:54;12.25;;;11.15;;
9934;SDS011;5006;41.828;23.478;2023-04-25T05:07:19;10.93;;;9.82;;
9934;SDS011;5006;41.828;23.478;2023-04-25T05:08:47;10.00;;;8.95;;
9934;SDS011;5006;41.828;23.478;2023-04-25T05:09:59;9.30;;;8.40;;
9934;SDS011;5006;41.828;23.478;2023-04-25T05:11:10;9.35;;;8.45;;
9934;SDS011;5006;41.828;23.478;2023-04-25T05:12:35;10.25;;;9.25;;
9934;SDS011;5006;41.828;23.478;2023-04-25T05:14:11;9.00;;;8.10;;
9934;SDS011;5006;41.828;23.478;2023-04-25T05:15:29;8.40;;;7.50;;
9934;SDS011;5006;41.828;23.478;2023-04-25T05:16:53;8.30;;;7.57;;
9934;SDS011;5006;41.828;23.478;2023-04-25T05:18:16;8.38;;;7.65;;
9934;SDS011;5006;41.828;23.478;2023-04-25T05:19:42;8.90;;;8.02;;
9934;SDS011;5006;41.828;23.478;2023-04-25T05:21:10;8.68;;;7.88;;
9934;SDS011;5006;41.828;23.478;2023-04-25T05:22:39;8.80;;;8.02;;
9934;SDS011;5006;41.828;23.478;2023-04-25T05:23:57;9.23;;;8.43;;
9934;SDS011;5006;41.828;23.478;2023-04-25T05:25:22;9.80;;;8.90;;
9934;SDS011;5006;41.828;23.478;2023-04-25T05:26:35;10.52;;;9.63;;
9934;SDS011;5006;41.828;23.478;2023-04-25T05:28:01;10.35;;;9.45;;
9934;SDS011;5006;41.828;23.478;2023-04-25T05:29:19;9.90;;;9.00;;
9934;SDS011;5006;41.828;23.478;2023-04-25T05:31:00;10.18;;;9.18;;
9934;SDS011;5006;41.828;23.478;2023-04-25T05:32:10;9.68;;;8.88;;
9934;SDS011;5006;41.828;23.478;2023-04-25T05:33:17;10.13;;;9.13;;
9934;SDS011;5006;41.828;23.478;2023-04-25T05:34:23;9.98;;;9.07;;
9934;SDS011;5006;41.828;23.478;2023-04-25T05:35:38;9.55;;;8.65;;
9934;SDS011;5006;41.828;23.478;2023-04-25T05:36:43;9.13;;;8.32;;
9934;SDS011;5006;41.828;23.478;2023-04-25T05:37:52;8.48;;;7.78;;
9934;SDS011;5006;41.828;23.478;2023-04-25T05:39:09;8.00;;;7.28;;
9934;SDS011;5006;41.828;23.478;2023-04-25T05:40:33;7.80;;;7.10;;
9934;SDS011;5006;41.828;23.478;2023-04-25T05:42:03;7.65;;;6.95;;
9934;SDS011;5006;41.828;23.478;2023-04-25T05:43:33;6.57;;;6.07;;
9934;SDS011;5006;41.828;23.478;2023-04-25T05:44:53;6.97;;;6.28;;
9934;SDS011;5006;41.828;23.478;2023-04-25T05:46:22;6.75;;;6.15;;
9934;SDS011;5006;41.828;23.478;2023-04-25T05:47:52;7.03;;;6.50;;
9934;SDS011;5006;41.828;23.478;2023-04-25T05:49:04;9.85;;;8.95;;
9934;SDS011;5006;41.828;23.478;2023-04-25T05:50:20;9.90;;;9.10;;
9934;SDS011;5006;41.828;23.478;2023-04-25T05:51:37;11.27;;;10.18;;
9934;SDS011;5006;41.828;23.478;2023-04-25T05:53:09;12.77;;;11.57;;
9934;SDS011;5006;41.828;23.478;2023-04-25T05:54:20;12.90;;;11.70;;
9934;SDS011;5006;41.828;23.478;2023-04-25T05:55:26;14.18;;;12.88;;
9934;SDS011;5006;41.828;23.478;2023-04-25T05:56:32;15.02;;;13.63;;
9934;SDS011;5006;41.828;23.478;2023-04-25T05:57:37;15.52;;;14.05;;
9934;SDS011;5006;41.828;23.478;2023-04-25T05:58:46;17.48;;;15.77;;
9934;SDS011;5006;41.828;23.478;2023-04-25T05:59:53;25.52;;;23.05;;
9934;SDS011;5006;41.828;23.478;2023-04-25T06:00:58;29.30;;;26.30;;
9934;SDS011;5006;41.828;23.478;2023-04-25T06:02:05;37.85;;;33.97;;
9934;SDS011;5006;41.828;23.478;2023-04-25T06:03:12;67.28;;;31.95;;
9934;SDS011;5006;41.828;23.478;2023-04-25T06:04:20;31.85;;;28.65;;
9934;SDS011;5006;41.828;23.478;2023-04-25T06:05:24;31.52;;;28.48;;
9934;SDS011;5006;41.828;23.478;2023-04-25T06:06:30;50.35;;;32.92;;
9934;SDS011;5006;41.828;23.478;2023-04-25T06:07:37;35.70;;;29.98;;
9934;SDS011;5006;41.828;23.478;2023-04-25T06:08:43;28.02;;;25.33;;
9934;SDS011;5006;41.828;23.478;2023-04-25T06:09:49;28.25;;;25.48;;
9934;SDS011;5006;41.828;23.478;2023-04-25T06:10:55;26.02;;;23.52;;
9934;SDS011;5006;41.828;23.478;2023-04-25T06:12:02;25.65;;;23.25;;
9934;SDS011;5006;41.828;23.478;2023-04-25T06:13:08;24.00;;;21.73;;
9934;SDS011;5006;41.828;23.478;2023-04-25T06:14:14;25.65;;;23.02;;
9934;SDS011;5006;41.828;23.478;2023-04-25T06:15:25;25.65;;;23.02;;
9934;SDS011;5006;41.828;23.478;2023-04-25T06:16:31;26.02;;;23.58;;
9934;SDS011;5006;41.828;23.478;2023-04-25T06:17:38;25.05;;;22.55;;
9934;SDS011;5006;41.828;23.478;2023-04-25T06:18:45;28.00;;;25.00;;
9934;SDS011;5006;41.828;23.478;2023-04-25T06:19:49;26.95;;;24.13;;
9934;SDS011;5006;41.828;23.478;2023-04-25T06:20:56;26.65;;;24.02;;
9934;SDS011;5006;41.828;23.478;2023-04-25T06:22:02;24.45;;;22.02;;
9934;SDS011;5006;41.828;23.478;2023-04-25T06:23:10;22.80;;;20.60;;
9934;SDS011;5006;41.828;23.478;2023-04-25T06:24:38;21.90;;;19.90;;
9934;SDS011;5006;41.828;23.478;2023-04-25T06:25:44;20.10;;;18.25;;
9934;SDS011;5006;41.828;23.478;2023-04-25T06:26:49;20.13;;;18.23;;
9934;SDS011;5006;41.828;23.478;2023-04-25T06:27:56;19.33;;;17.52;;
9934;SDS011;5006;41.828;23.478;2023-04-25T06:29:01;17.48;;;15.82;;
9934;SDS011;5006;41.828;23.478;2023-04-25T06:30:08;17.50;;;15.88;;
9934;SDS011;5006;41.828;23.478;2023-04-25T06:31:14;15.90;;;14.38;;
9934;SDS011;5006;41.828;23.478;2023-04-25T06:32:21;10.50;;;9.35;;
9934;SDS011;5006;41.828;23.478;2023-04-25T06:33:28;12.65;;;11.45;;
9934;SDS011;5006;41.828;23.478;2023-04-25T06:34:35;12.75;;;11.60;;
9934;SDS011;5006;41.828;23.478;2023-04-25T06:35:40;11.35;;;10.25;;
9934;SDS011;5006;41.828;23.478;2023-04-25T06:36:49;13.48;;;12.15;;
9934;SDS011;5006;41.828;23.478;2023-04-25T06:37:54;13.32;;;12.10;;
9934;SDS011;5006;41.828;23.478;2023-04-25T06:39:01;13.65;;;12.35;;
9934;SDS011;5006;41.828;23.478;2023-04-25T06:40:08;13.30;;;12.07;;
9934;SDS011;5006;41.828;23.478;2023-04-25T06:41:14;15.18;;;11.82;;
9934;SDS011;5006;41.828;23.478;2023-04-25T06:42:20;13.80;;;12.40;;
9934;SDS011;5006;41.828;23.478;2023-04-25T06:43:36;14.63;;;13.13;;
9934;SDS011;5006;41.828;23.478;2023-04-25T06:44:53;18.50;;;16.75;;
9934;SDS011;5006;41.828;23.478;2023-04-25T06:46:00;19.45;;;15.32;;
9934;SDS011;5006;41.828;23.478;2023-04-25T06:47:07;20.95;;;14.63;;
9934;SDS011;5006;41.828;23.478;2023-04-25T06:48:12;16.10;;;14.48;;
9934;SDS011;5006;41.828;23.478;2023-04-25T06:49:20;16.63;;;15.00;;
9934;SDS011;5006;41.828;23.478;2023-04-25T06:50:25;16.20;;;14.60;;
9934;SDS011;5006;41.828;23.478;2023-04-25T06:51:31;16.42;;;14.82;;
9934;SDS011;5006;41.828;23.478;2023-04-25T06:52:37;17.55;;;15.85;;
9934;SDS011;5006;41.828;23.478;2023-04-25T06:53:43;16.65;;;15.05;;
9934;SDS011;5006;41.828;23.478;2023-04-25T06:54:59;13.98;;;12.55;;
9934;SDS011;5006;41.828;23.478;2023-04-25T06:56:17;14.15;;;12.82;;
9934;SDS011;5006;41.828;23.478;2023-04-25T06:57:34;13.55;;;12.30;;
9934;SDS011;5006;41.828;23.478;2023-04-25T06:58:59;13.82;;;12.52;;
9934;SDS011;5006;41.828;23.478;2023-04-25T07:00:09;12.98;;;11.75;;
9934;SDS011;5006;41.828;23.478;2023-04-25T07:01:15;11.90;;;10.80;;
9934;SDS011;5006;41.828;23.478;2023-04-25T07:02:21;12.82;;;11.68;;
9934;SDS011;5006;41.828;23.478;2023-04-25T07:03:28;11.10;;;10.00;;
9934;SDS011;5006;41.828;23.478;2023-04-25T07:04:40;11.75;;;10.65;;